createdAt,value
2023-03-29T00:00:46.955Z,56.97
2023-03-29T00:03:37.419Z,49.03
2023-03-29T00:06:33.267Z,45.97
2023-03-29T00:09:21.164Z,36.83
2023-03-29T00:12:08.098Z,32.30
2023-03-29T00:14:56.747Z,34.97
2023-03-29T00:17:43.461Z,32.08
2023-03-29T00:20:30.179Z,33.50
2023-03-29T00:23:18.587Z,43.22
2023-03-29T00:26:08.613Z,33.30
2023-03-29T00:28:55.633Z,31.95
2023-03-29T00:31:42.754Z,31.27
2023-03-29T00:34:31.817Z,30.08
2023-03-29T00:37:22.883Z,34.85
2023-03-29T00:40:15.796Z,36.75
2023-03-29T00:43:06.419Z,28.88
2023-03-29T00:45:53.411Z,33.05
2023-03-29T00:48:40.500Z,35.78
2023-03-29T00:51:28.658Z,33.17
2023-03-29T00:54:21.204Z,38.35
2023-03-29T00:57:10.847Z,31.80
2023-03-29T00:59:58.605Z,46.28
2023-03-29T01:02:51.198Z,44.58
2023-03-29T01:05:42.227Z,44.70
2023-03-29T01:08:37.620Z,40.65
2023-03-29T01:11:28.509Z,49.17
2023-03-29T01:14:22.985Z,45.70
2023-03-29T01:17:13.114Z,49.78
2023-03-29T01:20:09.787Z,47.47
2023-03-29T01:23:33.863Z,43.08
2023-03-29T01:26:30.519Z,40.60
2023-03-29T01:29:43.407Z,38.20
2023-03-29T01:32:37.864Z,34.40
2023-03-29T01:35:32.834Z,33.13
2023-03-29T01:38:23.583Z,29.73
2023-03-29T01:41:12.261Z,29.02
2023-03-29T01:44:06.757Z,32.95
2023-03-29T01:46:57.071Z,31.38
2023-03-29T01:49:52.365Z,34.40
2023-03-29T01:52:52.358Z,36.83
2023-03-29T01:55:41.263Z,40.38
2023-03-29T01:58:33.971Z,37.95
2023-03-29T02:01:26.227Z,33.42
2023-03-29T02:04:18.018Z,39.55
2023-03-29T02:07:07.535Z,43.25
2023-03-29T02:09:54.323Z,36.25
2023-03-29T02:12:41.371Z,45.88
2023-03-29T02:15:28.306Z,37.65
2023-03-29T02:18:17.942Z,47.15
2023-03-29T02:21:07.507Z,61.97
2023-03-29T02:23:56.288Z,59.05
2023-03-29T02:26:42.870Z,70.70
2023-03-29T02:29:29.743Z,68.60
2023-03-29T02:32:49.171Z,63.40
2023-03-29T02:35:46.242Z,76.22
2023-03-29T02:38:33.341Z,64.50
2023-03-29T02:41:21.229Z,73.80
2023-03-29T02:44:19.293Z,59.78
2023-03-29T02:47:16.384Z,58.00
2023-03-29T02:50:02.893Z,49.10
2023-03-29T02:52:56.447Z,53.80
2023-03-29T02:55:43.192Z,42.40
2023-03-29T02:58:29.801Z,40.67
2023-03-29T03:01:16.989Z,44.50
2023-03-29T03:04:06.372Z,41.33
2023-03-29T03:06:55.343Z,31.80
2023-03-29T03:09:42.847Z,41.95
2023-03-29T03:12:29.429Z,38.67
2023-03-29T03:15:16.428Z,44.65
2023-03-29T03:18:04.450Z,44.13
2023-03-29T03:20:57.250Z,58.60
2023-03-29T03:23:46.167Z,54.85
2023-03-29T03:26:34.324Z,49.65
2023-03-29T03:29:25.327Z,56.42
2023-03-29T03:32:30.680Z,82.50
2023-03-29T03:36:02.975Z,73.72
2023-03-29T03:38:50.840Z,56.42
2023-03-29T03:41:40.537Z,36.10
2023-03-29T03:44:30.497Z,41.40
2023-03-29T03:47:41.215Z,56.28
2023-03-29T03:50:59.309Z,47.47
2023-03-29T03:53:51.893Z,53.08
2023-03-29T03:56:53.789Z,62.17
2023-03-29T03:59:49.163Z,51.92
2023-03-29T04:02:43.772Z,53.92
2023-03-29T04:05:30.214Z,61.72
2023-03-29T04:08:17.469Z,55.97
2023-03-29T04:11:28.170Z,45.65
2023-03-29T04:14:15.478Z,45.13
2023-03-29T04:17:22.809Z,41.05
2023-03-29T04:20:15.113Z,40.78
2023-03-29T04:23:01.895Z,61.83
2023-03-29T04:25:53.972Z,58.60
2023-03-29T04:29:16.293Z,57.78
2023-03-29T04:32:14.299Z,65.78
2023-03-29T04:35:21.274Z,69.57
2023-03-29T04:38:13.854Z,74.90
2023-03-29T04:41:05.171Z,60.70
2023-03-29T04:44:18.214Z,52.42
2023-03-29T04:47:13.293Z,42.85
2023-03-29T04:50:03.422Z,45.10
2023-03-29T04:53:00.456Z,59.08
2023-03-29T04:55:52.412Z,70.18
2023-03-29T04:58:52.330Z,43.72
2023-03-29T05:01:40.897Z,42.20
2023-03-29T05:04:29.384Z,50.05
2023-03-29T05:07:24.861Z,54.53
2023-03-29T05:10:18.018Z,58.70
2023-03-29T05:13:08.372Z,50.80
2023-03-29T05:15:55.111Z,50.05
2023-03-29T05:18:42.094Z,44.22
2023-03-29T05:21:29.721Z,35.67
2023-03-29T05:24:22.612Z,40.83
2023-03-29T05:27:17.392Z,42.72
2023-03-29T05:30:16.569Z,59.55
2023-03-29T05:33:16.141Z,48.47
2023-03-29T05:36:11.288Z,43.53
2023-03-29T05:39:06.209Z,48.83
2023-03-29T05:41:55.033Z,44.55
2023-03-29T05:44:54.614Z,50.08
2023-03-29T05:47:41.873Z,41.00
2023-03-29T05:50:28.521Z,65.28
2023-03-29T05:53:17.769Z,41.55
2023-03-29T05:56:04.390Z,41.40
2023-03-29T05:58:57.137Z,36.22
2023-03-29T06:01:47.148Z,39.13
2023-03-29T06:04:40.242Z,42.95
2023-03-29T06:07:44.532Z,47.78
2023-03-29T06:10:36.795Z,43.78
2023-03-29T06:13:42.321Z,44.40
2023-03-29T06:16:29.727Z,54.08
2023-03-29T06:19:17.474Z,46.92
2023-03-29T06:22:05.616Z,66.97
2023-03-29T06:24:54.835Z,68.60
2023-03-29T06:27:52.181Z,55.47
2023-03-29T06:30:39.798Z,65.85
2023-03-29T06:33:27.827Z,50.40
2023-03-29T06:36:34.585Z,52.95
2023-03-29T06:39:21.541Z,39.75
2023-03-29T06:42:22.686Z,40.63
2023-03-29T06:45:38.858Z,27.17
2023-03-29T06:48:31.842Z,25.58
2023-03-29T06:51:21.117Z,27.73
2023-03-29T06:54:09.395Z,23.63
2023-03-29T06:57:05.575Z,22.50
2023-03-29T06:59:54.062Z,22.27
2023-03-29T07:02:54.300Z,24.88
2023-03-29T07:05:41.921Z,17.17
2023-03-29T07:08:35.290Z,20.20
2023-03-29T07:11:26.579Z,21.00
2023-03-29T07:14:31.051Z,22.63
2023-03-29T07:17:18.775Z,22.20
2023-03-29T07:20:14.688Z,20.45
2023-03-29T07:23:09.739Z,22.88
2023-03-29T07:25:56.648Z,21.15
2023-03-29T07:28:43.404Z,19.85
2023-03-29T07:31:30.923Z,19.30
2023-03-29T07:34:37.144Z,17.17
2023-03-29T07:37:26.426Z,18.23
2023-03-29T07:40:19.114Z,17.42
2023-03-29T07:43:38.015Z,16.65
2023-03-29T07:46:30.010Z,16.20
2023-03-29T07:49:17.175Z,16.33
2023-03-29T07:52:04.026Z,16.02
2023-03-29T07:54:54.289Z,16.00
2023-03-29T07:57:52.323Z,17.85
2023-03-29T08:00:39.470Z,15.30
2023-03-29T08:03:48.919Z,15.85
2023-03-29T08:06:36.819Z,17.48
2023-03-29T08:09:29.746Z,13.35
2023-03-29T08:12:17.094Z,15.20
2023-03-29T08:15:13.518Z,17.85
2023-03-29T08:18:03.326Z,17.40
2023-03-29T08:20:53.125Z,15.68
2023-03-29T08:23:43.081Z,12.52
2023-03-29T08:26:45.202Z,15.68
2023-03-29T08:29:34.847Z,25.33
2023-03-29T08:32:22.599Z,60.83
2023-03-29T08:35:09.893Z,48.55
2023-03-29T08:38:09.510Z,27.60
2023-03-29T08:40:57.020Z,23.93
2023-03-29T08:43:45.507Z,29.98
2023-03-29T08:46:58.490Z,22.17
2023-03-29T08:49:56.701Z,16.77
2023-03-29T08:52:57.536Z,16.80
2023-03-29T08:56:25.187Z,16.90
2023-03-29T08:59:37.620Z,34.92
2023-03-29T09:02:36.465Z,28.25
2023-03-29T09:05:39.183Z,27.38
2023-03-29T09:08:32.548Z,15.95
2023-03-29T09:11:24.100Z,14.07
2023-03-29T09:14:29.687Z,12.05
2023-03-29T09:17:56.324Z,12.18
2023-03-29T09:20:52.812Z,10.30
2023-03-29T09:23:59.387Z,10.68
2023-03-29T09:26:55.368Z,6.97
2023-03-29T09:30:13.162Z,5.85
2023-03-29T09:33:44.490Z,5.25
2023-03-29T09:37:02.904Z,9.45
2023-03-29T09:39:49.896Z,7.50
2023-03-29T09:42:40.726Z,6.75
2023-03-29T09:45:27.220Z,7.25
2023-03-29T09:48:15.843Z,6.63
2023-03-29T09:51:08.977Z,8.35
2023-03-29T09:53:58.237Z,7.22
2023-03-29T09:57:03.589Z,12.43
2023-03-29T09:59:51.539Z,11.50
2023-03-29T10:02:38.403Z,19.80
2023-03-29T10:05:26.375Z,40.45
2023-03-29T10:08:44.829Z,15.82
2023-03-29T10:11:37.519Z,9.98
2023-03-29T10:14:38.625Z,16.45
2023-03-29T10:17:28.496Z,10.98
2023-03-29T10:20:36.540Z,12.77
2023-03-29T10:23:23.296Z,10.93
2023-03-29T10:26:21.692Z,10.10
2023-03-29T10:29:09.632Z,6.82
2023-03-29T10:31:56.746Z,9.13
2023-03-29T10:34:48.175Z,9.93
2023-03-29T10:37:35.414Z,9.25
2023-03-29T10:40:40.903Z,11.20
2023-03-29T10:43:34.939Z,13.57
2023-03-29T10:46:27.495Z,15.45
2023-03-29T10:49:20.574Z,11.35
2023-03-29T10:52:13.787Z,7.90
2023-03-29T10:55:03.469Z,17.42
2023-03-29T10:58:41.414Z,16.60
2023-03-29T11:01:47.391Z,12.57
2023-03-29T11:05:13.779Z,8.73
2023-03-29T11:08:17.671Z,14.13
2023-03-29T11:11:37.467Z,15.70
2023-03-29T11:15:05.655Z,14.80
2023-03-29T11:18:33.389Z,22.48
2023-03-29T11:21:37.815Z,16.73
2023-03-29T11:35:42.444Z,11.98
2023-03-29T11:38:37.889Z,12.25
2023-03-29T11:41:30.800Z,9.85
2023-03-29T11:44:23.485Z,10.50
2023-03-29T11:47:23.527Z,11.10
2023-03-29T11:50:20.683Z,10.73
2023-03-29T11:53:17.680Z,8.60
2023-03-29T11:56:13.305Z,8.85
2023-03-29T11:59:09.021Z,6.85
2023-03-29T12:02:20.551Z,26.90
2023-03-29T12:05:24.694Z,10.23
2023-03-29T12:08:21.353Z,8.68
2023-03-29T12:11:30.849Z,15.23
2023-03-29T12:14:27.366Z,6.75
2023-03-29T12:17:24.660Z,8.48
2023-03-29T12:20:20.138Z,7.68
2023-03-29T12:23:16.652Z,5.45
2023-03-29T12:26:12.917Z,8.25
2023-03-29T12:29:28.633Z,13.38
2023-03-29T12:32:38.921Z,6.70
2023-03-29T12:36:08.945Z,8.60
2023-03-29T12:39:19.062Z,7.65
2023-03-29T12:43:05.292Z,13.20
2023-03-29T12:46:21.518Z,20.80
2023-03-29T12:49:23.100Z,24.83
2023-03-29T12:52:32.945Z,18.45
2023-03-29T12:55:45.509Z,39.95
2023-03-29T12:58:39.986Z,26.63
2023-03-29T13:01:29.002Z,28.60
2023-03-29T13:04:21.941Z,19.70
2023-03-29T13:07:24.214Z,41.92
2023-03-29T13:10:33.249Z,40.00
2023-03-29T13:13:26.142Z,22.05
2023-03-29T13:45:26.746Z,21.73
2023-03-29T13:48:30.965Z,60.88
2023-03-29T13:51:19.364Z,35.08
2023-03-29T13:54:19.874Z,17.40
2023-03-29T13:57:41.267Z,17.75
2023-03-29T14:00:33.850Z,15.73
2023-03-29T14:03:33.298Z,19.05
2023-03-29T14:06:42.649Z,14.00
2023-03-29T14:09:35.041Z,20.20
2023-03-29T14:12:29.401Z,27.80
2023-03-29T14:15:45.231Z,15.32
2023-03-29T14:18:36.655Z,19.67
2023-03-29T14:21:23.147Z,30.45
2023-03-29T14:24:13.002Z,20.58
2023-03-29T14:27:02.769Z,23.23
2023-03-29T14:29:51.773Z,14.02
2023-03-29T14:32:39.855Z,15.65
2023-03-29T14:35:32.490Z,22.23
2023-03-29T14:38:18.683Z,20.50
2023-03-29T14:41:05.568Z,31.60
2023-03-29T14:43:52.359Z,114.97
2023-03-29T14:46:39.595Z,32.28
2023-03-29T14:49:27.289Z,66.88
2023-03-29T14:52:15.655Z,18.55
2023-03-29T14:55:02.740Z,25.95
2023-03-29T14:57:51.380Z,27.92
2023-03-29T15:00:43.095Z,26.10
2023-03-29T15:03:33.444Z,23.95
2023-03-29T15:06:20.934Z,30.97
2023-03-29T15:09:15.403Z,38.92
2023-03-29T15:12:06.217Z,30.17
2023-03-29T15:14:54.833Z,37.45
2023-03-29T15:17:51.923Z,39.08
2023-03-29T15:20:40.600Z,16.90
2023-03-29T15:23:27.163Z,22.58
2023-03-29T15:26:20.326Z,19.35
2023-03-29T15:29:23.670Z,29.67
2023-03-29T15:32:23.065Z,27.33
2023-03-29T15:35:25.859Z,28.25
2023-03-29T15:38:14.323Z,24.60
2023-03-29T15:41:04.218Z,29.30
2023-03-29T15:43:50.654Z,35.25
2023-03-29T15:46:37.249Z,28.45
2023-03-29T15:50:06.205Z,26.85
2023-03-29T15:53:43.190Z,47.42
2023-03-29T15:56:37.567Z,26.27
2023-03-29T15:59:25.733Z,29.85
2023-03-29T16:02:16.666Z,49.78
2023-03-29T16:05:04.831Z,27.77
2023-03-29T16:07:51.353Z,15.48
2023-03-29T16:10:37.927Z,17.58
2023-03-29T16:13:24.831Z,19.38
2023-03-29T16:16:13.529Z,21.38
2023-03-29T16:19:00.147Z,27.00
2023-03-29T16:21:46.082Z,41.63
2023-03-29T16:24:34.158Z,23.63
2023-03-29T16:27:20.630Z,21.58
2023-03-29T16:30:08.496Z,26.85
2023-03-29T16:32:55.133Z,21.50
2023-03-29T16:35:42.257Z,55.40
2023-03-29T16:38:29.483Z,25.25
2023-03-29T16:41:16.983Z,29.13
2023-03-29T16:44:04.105Z,19.90
2023-03-29T16:46:50.734Z,27.05
2023-03-29T16:49:39.238Z,17.80
2023-03-29T16:52:27.852Z,25.40
2023-03-29T16:55:15.359Z,40.80
2023-03-29T16:58:01.829Z,28.17
2023-03-29T17:00:48.630Z,30.83
2023-03-29T17:03:37.496Z,33.28
2023-03-29T17:06:24.269Z,29.60
2023-03-29T17:09:10.775Z,36.30
2023-03-29T17:11:57.084Z,35.00
2023-03-29T17:14:43.678Z,23.08
2023-03-29T17:17:29.907Z,28.15
2023-03-29T17:20:16.924Z,30.13
2023-03-29T17:23:03.219Z,27.38
2023-03-29T17:25:50.186Z,64.40
2023-03-29T17:28:39.020Z,34.75
2023-03-29T17:31:26.300Z,31.05
2023-03-29T17:34:12.475Z,26.75
2023-03-29T17:37:00.172Z,28.42
2023-03-29T17:39:46.324Z,49.47
2023-03-29T17:42:32.813Z,24.33
2023-03-29T17:45:19.615Z,31.83
2023-03-29T17:48:06.666Z,18.25
2023-03-29T17:50:57.010Z,20.30
2023-03-29T17:53:44.293Z,27.83
2023-03-29T17:56:30.798Z,21.73
2023-03-29T17:59:17.752Z,31.67
2023-03-29T18:02:06.139Z,34.03
2023-03-29T18:04:52.689Z,28.17
2023-03-29T18:07:38.668Z,41.00
2023-03-29T18:10:25.165Z,60.92
2023-03-29T18:13:14.164Z,39.65
2023-03-29T18:16:05.441Z,78.53
2023-03-29T18:18:52.301Z,62.33
2023-03-29T18:21:38.587Z,166.55
2023-03-29T18:24:33.197Z,123.43
2023-03-29T18:27:20.035Z,89.97
2023-03-29T18:30:07.767Z,53.95
2023-03-29T18:32:54.181Z,63.35
2023-03-29T18:35:40.644Z,72.63
2023-03-29T18:38:27.241Z,116.13
2023-03-29T18:41:14.367Z,130.70
2023-03-29T18:44:01.119Z,90.10
2023-03-29T18:46:48.220Z,66.03
2023-03-29T18:49:34.726Z,47.45
2023-03-29T18:52:24.996Z,38.72
2023-03-29T18:55:11.532Z,45.13
2023-03-29T18:57:58.030Z,39.92
2023-03-29T19:00:44.713Z,38.50
2023-03-29T19:03:32.195Z,41.28
2023-03-29T19:06:19.378Z,37.33
2023-03-29T19:09:05.515Z,41.35
2023-03-29T19:11:51.764Z,40.40
2023-03-29T19:14:37.581Z,39.10
2023-03-29T19:17:24.258Z,44.72
2023-03-29T19:20:11.719Z,41.85
2023-03-29T19:22:58.245Z,48.28
2023-03-29T19:26:00.949Z,47.40
2023-03-29T19:28:47.604Z,195.57
2023-03-29T19:31:36.076Z,91.90
2023-03-29T19:34:24.049Z,85.07
2023-03-29T19:37:10.052Z,67.05
2023-03-29T19:39:57.244Z,47.75
2023-03-29T19:42:43.588Z,47.53
2023-03-29T19:45:30.124Z,46.95
2023-03-29T19:48:22.367Z,42.00
2023-03-29T19:51:10.708Z,47.97
2023-03-29T19:53:57.424Z,40.67
2023-03-29T19:56:44.421Z,38.70
2023-03-29T19:59:31.649Z,49.50
2023-03-29T20:02:17.856Z,48.20
2023-03-29T20:05:04.528Z,46.08
2023-03-29T20:07:51.601Z,42.72
2023-03-29T20:10:37.554Z,44.10
2023-03-29T20:13:57.254Z,56.45
2023-03-29T20:17:11.876Z,54.90
2023-03-29T20:20:13.382Z,53.13
2023-03-29T20:23:05.411Z,39.08
2023-03-29T20:25:52.737Z,44.17
2023-03-29T20:28:39.266Z,41.50
2023-03-29T20:31:26.096Z,36.80
2023-03-29T20:34:12.406Z,46.58
2023-03-29T20:37:01.142Z,40.60
2023-03-29T20:39:47.842Z,34.75
2023-03-29T20:42:36.830Z,29.48
2023-03-29T20:45:23.102Z,25.70
2023-03-29T20:48:11.960Z,23.80
2023-03-29T20:50:58.609Z,27.42
2023-03-29T20:54:02.508Z,34.75
2023-03-29T20:56:48.878Z,25.58
2023-03-29T20:59:35.836Z,25.15
2023-03-29T21:02:23.074Z,18.67
2023-03-29T21:05:09.970Z,23.42
2023-03-29T21:07:57.269Z,18.77
2023-03-29T21:10:45.096Z,22.75
2023-03-29T21:13:36.508Z,26.42
2023-03-29T21:16:25.393Z,22.60
2023-03-29T21:19:12.682Z,20.95
2023-03-29T21:21:59.167Z,21.70
2023-03-29T21:24:45.228Z,15.73
2023-03-29T21:27:37.339Z,15.90
2023-03-29T21:30:23.687Z,18.70
2023-03-29T21:33:10.650Z,22.70
2023-03-29T21:35:57.055Z,27.40
2023-03-29T21:38:43.548Z,32.05
2023-03-29T21:41:29.573Z,21.02
2023-03-29T21:44:15.939Z,18.42
2023-03-29T21:47:05.747Z,22.08
2023-03-29T21:49:52.524Z,21.90
2023-03-29T21:52:38.662Z,20.80
2023-03-29T21:55:25.289Z,21.58
2023-03-29T21:58:12.591Z,35.67
2023-03-29T22:00:58.840Z,23.95
2023-03-29T22:03:46.631Z,22.42
2023-03-29T22:06:33.346Z,19.45
2023-03-29T22:09:20.569Z,17.10
2023-03-29T22:12:07.361Z,21.85
2023-03-29T22:14:53.616Z,19.80
2023-03-29T22:17:41.471Z,19.13
2023-03-29T22:20:27.925Z,16.85
2023-03-29T22:23:15.407Z,17.50
2023-03-29T22:26:07.178Z,17.58
2023-03-29T22:28:53.950Z,28.33
2023-03-29T22:31:40.701Z,20.00
2023-03-29T22:34:27.765Z,21.88
2023-03-29T22:37:14.063Z,24.23
2023-03-29T22:40:00.282Z,22.27
2023-03-29T22:42:46.795Z,24.70
2023-03-29T22:45:32.876Z,34.05
2023-03-29T22:48:19.256Z,51.40
2023-03-29T22:51:06.304Z,32.35
2023-03-29T22:53:52.152Z,24.83
2023-03-29T22:56:38.768Z,22.38
2023-03-29T22:59:25.574Z,21.98
2023-03-29T23:02:11.765Z,23.35
2023-03-29T23:04:57.868Z,22.00
2023-03-29T23:07:44.458Z,17.88
2023-03-29T23:10:30.914Z,25.10
2023-03-29T23:13:23.595Z,24.42
2023-03-29T23:16:09.839Z,20.77
2023-03-29T23:18:56.645Z,21.70
2023-03-29T23:21:42.368Z,23.60
2023-03-29T23:24:30.426Z,27.80
2023-03-29T23:27:16.306Z,29.05
2023-03-29T23:30:02.554Z,26.55
2023-03-29T23:32:49.524Z,30.40
2023-03-29T23:35:37.321Z,46.60
2023-03-29T23:38:23.348Z,30.50
2023-03-29T23:41:10.939Z,29.52
2023-03-29T23:43:57.778Z,31.38
2023-03-29T23:46:44.114Z,31.55
2023-03-29T23:49:30.238Z,30.50
2023-03-29T23:52:16.283Z,32.20
2023-03-29T23:55:02.528Z,27.20
2023-03-29T23:57:48.443Z,23.92
